createdAt,value
2022-12-15T00:02:44.170Z,34.83
2022-12-15T00:05:29.545Z,33.80
2022-12-15T00:08:14.908Z,35.53
2022-12-15T00:11:00.097Z,32.90
2022-12-15T00:13:45.533Z,33.73
2022-12-15T00:16:32.027Z,35.63
2022-12-15T00:19:17.308Z,34.87
2022-12-15T00:22:02.693Z,33.30
2022-12-15T00:24:49.779Z,35.60
2022-12-15T00:27:35.481Z,34.27
2022-12-15T00:30:20.846Z,35.17
2022-12-15T00:33:07.423Z,35.67
2022-12-15T00:35:52.475Z,34.00
2022-12-15T00:38:37.811Z,34.17
2022-12-15T00:41:06.234Z,36.20
2022-12-15T00:43:36.022Z,35.30
2022-12-15T00:46:22.966Z,33.50
2022-12-15T00:48:51.985Z,34.10
2022-12-15T00:51:19.256Z,36.10
2022-12-15T00:54:04.948Z,35.67
2022-12-15T00:56:50.904Z,34.67
2022-12-15T00:59:36.048Z,36.13
2022-12-15T01:02:22.483Z,34.43
2022-12-15T01:05:09.078Z,34.63
2022-12-15T01:07:54.436Z,35.70
2022-12-15T01:10:39.630Z,33.37
2022-12-15T01:13:25.168Z,33.40
2022-12-15T01:16:10.820Z,32.93
2022-12-15T01:18:55.979Z,35.90
2022-12-15T01:21:25.488Z,33.77
2022-12-15T01:23:53.862Z,35.10
2022-12-15T01:26:21.477Z,36.97
2022-12-15T01:28:49.112Z,35.37
2022-12-15T01:31:16.882Z,34.77
2022-12-15T01:33:44.492Z,36.60
2022-12-15T01:36:12.372Z,36.30
2022-12-15T01:38:41.313Z,35.27
2022-12-15T01:41:11.037Z,35.37
2022-12-15T01:43:41.037Z,34.10
2022-12-15T01:46:10.420Z,35.10
2022-12-15T01:48:42.589Z,35.40
2022-12-15T01:51:15.951Z,34.40
2022-12-15T01:53:51.579Z,35.87
2022-12-15T01:56:21.284Z,35.47
2022-12-15T01:58:52.205Z,35.63
2022-12-15T02:01:19.909Z,37.23
2022-12-15T02:03:48.415Z,38.03
2022-12-15T02:06:18.025Z,38.23
2022-12-15T02:08:48.415Z,36.50
2022-12-15T02:11:47.814Z,33.83
2022-12-15T02:14:25.982Z,35.50
2022-12-15T02:17:05.691Z,36.43
2022-12-15T02:20:09.730Z,40.00
2022-12-15T02:23:01.555Z,36.23
2022-12-15T02:25:55.844Z,35.83
2022-12-15T02:28:40.196Z,36.80
2022-12-15T02:31:32.384Z,38.50
2022-12-15T02:34:07.296Z,35.93
2022-12-15T02:36:39.284Z,36.73
2022-12-15T02:39:07.266Z,36.70
2022-12-15T02:41:40.663Z,38.17
2022-12-15T02:44:12.268Z,34.87
2022-12-15T02:46:55.505Z,35.13
2022-12-15T02:49:36.388Z,33.37
2022-12-15T02:52:14.860Z,34.13
2022-12-15T02:54:58.947Z,33.53
2022-12-15T02:57:35.399Z,35.03
2022-12-15T03:00:06.900Z,32.70
2022-12-15T03:02:38.945Z,34.07
2022-12-15T03:05:07.590Z,35.20
2022-12-15T03:07:35.196Z,37.47
2022-12-15T03:10:06.628Z,37.13
2022-12-15T03:12:34.279Z,36.47
2022-12-15T03:15:01.918Z,38.40
2022-12-15T03:17:29.522Z,37.73
2022-12-15T03:19:58.470Z,40.00
2022-12-15T03:22:26.446Z,40.43
2022-12-15T03:24:54.081Z,40.30
2022-12-15T03:27:21.662Z,42.67
2022-12-15T03:29:49.235Z,43.13
2022-12-15T03:32:16.908Z,44.83
2022-12-15T03:34:45.227Z,42.27
2022-12-15T03:37:14.246Z,42.10
2022-12-15T03:39:41.837Z,43.00
2022-12-15T03:42:09.491Z,42.90
2022-12-15T03:44:37.084Z,41.97
2022-12-15T03:47:04.695Z,43.47
2022-12-15T03:49:32.342Z,39.07
2022-12-15T03:51:59.930Z,39.23
2022-12-15T03:54:28.915Z,40.33
2022-12-15T03:56:56.494Z,38.63
2022-12-15T03:59:24.144Z,35.93
2022-12-15T04:01:51.830Z,38.83
2022-12-15T04:04:19.462Z,37.23
2022-12-15T04:06:47.079Z,37.83
2022-12-15T04:09:14.671Z,36.83
2022-12-15T04:11:44.270Z,38.53
2022-12-15T04:14:11.914Z,36.30
2022-12-15T04:16:39.540Z,40.40
2022-12-15T04:19:24.591Z,38.33
2022-12-15T04:21:52.183Z,36.17
2022-12-15T04:24:37.367Z,40.67
2022-12-15T04:27:24.130Z,36.70
2022-12-15T04:30:09.499Z,36.67
2022-12-15T04:32:54.921Z,36.90
2022-12-15T04:35:40.018Z,38.70
2022-12-15T04:38:25.369Z,38.03
2022-12-15T04:41:10.803Z,36.03
2022-12-15T04:43:58.464Z,35.50
2022-12-15T04:46:43.652Z,50.57
2022-12-15T04:49:28.857Z,38.93
2022-12-15T04:52:14.047Z,35.87
2022-12-15T04:54:59.230Z,37.80
2022-12-15T04:57:44.496Z,36.70
2022-12-15T05:00:31.850Z,38.73
2022-12-15T05:03:23.194Z,40.57
2022-12-15T05:06:08.319Z,38.73
2022-12-15T05:08:53.499Z,36.70
2022-12-15T05:11:38.908Z,39.30
2022-12-15T05:14:24.203Z,38.80
2022-12-15T05:17:10.472Z,37.23
2022-12-15T05:19:55.750Z,38.37
2022-12-15T05:22:41.151Z,36.70
2022-12-15T05:25:27.151Z,37.63
2022-12-15T05:28:12.436Z,41.40
2022-12-15T05:30:57.747Z,39.17
2022-12-15T05:33:26.835Z,41.93
2022-12-15T05:35:57.215Z,40.03
2022-12-15T05:38:24.835Z,40.20
2022-12-15T05:40:52.430Z,41.77
2022-12-15T05:43:24.759Z,40.40
2022-12-15T05:45:54.189Z,42.13
2022-12-15T05:48:21.817Z,39.97
2022-12-15T05:50:50.753Z,41.30
2022-12-15T05:53:18.323Z,41.37
2022-12-15T05:55:45.957Z,40.67
2022-12-15T05:58:13.582Z,40.07
2022-12-15T06:00:41.189Z,40.60
2022-12-15T06:03:08.812Z,39.60
2022-12-15T06:05:36.482Z,36.27
2022-12-15T06:08:05.881Z,38.10
2022-12-15T06:10:33.511Z,39.23
2022-12-15T06:13:01.800Z,39.07
2022-12-15T06:15:29.520Z,39.27
2022-12-15T06:17:57.103Z,40.33
2022-12-15T06:20:24.696Z,39.40
2022-12-15T06:22:52.364Z,37.53
2022-12-15T06:25:21.276Z,38.27
2022-12-15T06:27:48.829Z,40.77
2022-12-15T06:30:16.469Z,40.23
2022-12-15T06:32:44.039Z,40.00
2022-12-15T06:35:11.615Z,40.90
2022-12-15T06:37:39.219Z,42.10
2022-12-15T06:40:08.187Z,43.97
2022-12-15T06:42:37.145Z,42.70
2022-12-15T06:45:05.418Z,40.20
2022-12-15T06:47:33.040Z,42.70
2022-12-15T06:50:00.641Z,44.43
2022-12-15T06:52:28.219Z,43.80
2022-12-15T06:54:55.810Z,44.00
2022-12-15T06:57:23.369Z,44.97
2022-12-15T06:59:52.339Z,43.03
2022-12-15T07:02:25.192Z,46.40
2022-12-15T07:04:56.257Z,44.30
2022-12-15T07:07:23.925Z,44.33
2022-12-15T07:09:51.556Z,41.27
2022-12-15T07:12:19.134Z,42.30
2022-12-15T07:14:53.024Z,43.50
2022-12-15T07:17:22.423Z,43.13
2022-12-15T07:19:50.003Z,42.23
2022-12-15T07:22:17.611Z,40.57
2022-12-15T07:24:46.000Z,39.80
2022-12-15T07:27:13.587Z,44.67
2022-12-15T07:29:41.303Z,46.40
2022-12-15T07:32:08.886Z,43.20
2022-12-15T07:34:37.811Z,42.87
2022-12-15T07:37:05.419Z,43.50
2022-12-15T07:39:33.131Z,49.30
2022-12-15T07:42:01.215Z,44.87
2022-12-15T07:44:29.970Z,44.00
2022-12-15T07:46:57.568Z,41.63
2022-12-15T07:49:25.166Z,43.50
2022-12-15T07:51:58.267Z,44.60
2022-12-15T07:54:26.500Z,42.40
2022-12-15T07:56:54.079Z,43.93
2022-12-15T07:59:21.667Z,40.13
2022-12-15T08:01:49.559Z,40.47
2022-12-15T08:04:17.421Z,42.97
2022-12-15T08:06:45.065Z,40.80
2022-12-15T08:09:13.997Z,43.30
2022-12-15T08:11:41.538Z,41.30
2022-12-15T08:14:15.044Z,41.83
2022-12-15T08:16:45.318Z,40.37
2022-12-15T08:19:15.151Z,41.80
2022-12-15T08:21:44.052Z,39.40
2022-12-15T08:24:11.669Z,39.57
2022-12-15T08:26:41.830Z,40.40
2022-12-15T08:29:48.765Z,43.80
2022-12-15T08:32:00.306Z,42.00
2022-12-15T08:34:28.037Z,44.63
2022-12-15T08:36:55.579Z,42.33
2022-12-15T08:39:23.169Z,45.07
2022-12-15T08:41:52.176Z,45.00
2022-12-15T08:44:19.847Z,43.27
2022-12-15T08:46:47.374Z,44.17
2022-12-15T08:49:21.203Z,43.10
2022-12-15T08:51:50.379Z,43.03
2022-12-15T08:54:19.116Z,43.40
2022-12-15T08:56:46.779Z,42.30
2022-12-15T08:59:15.778Z,42.10
2022-12-15T09:01:43.551Z,44.80
2022-12-15T09:04:11.378Z,43.63
2022-12-15T09:06:38.983Z,44.13
2022-12-15T09:09:08.780Z,43.13
2022-12-15T09:11:36.800Z,43.93
2022-12-15T09:14:04.522Z,40.83
2022-12-15T09:16:33.520Z,42.90
2022-12-15T09:19:01.748Z,44.53
2022-12-15T09:21:30.961Z,42.40
2022-12-15T09:24:01.565Z,43.00
2022-12-15T09:26:30.749Z,43.27
2022-12-15T09:28:58.720Z,43.63
2022-12-15T09:31:29.247Z,43.10
2022-12-15T09:34:00.008Z,41.70
2022-12-15T09:36:28.353Z,44.63
2022-12-15T09:38:56.097Z,40.80
2022-12-15T09:41:27.066Z,41.63
2022-12-15T09:43:58.421Z,43.57
2022-12-15T09:46:40.407Z,41.50
2022-12-15T09:49:14.597Z,40.53
2022-12-15T09:51:49.044Z,41.33
2022-12-15T09:54:16.689Z,43.13
2022-12-15T09:56:50.331Z,43.57
2022-12-15T09:59:30.651Z,44.33
2022-12-15T10:02:19.694Z,47.07
2022-12-15T10:04:57.647Z,45.60
2022-12-15T10:07:32.080Z,44.00
2022-12-15T10:09:59.849Z,42.47
2022-12-15T10:12:33.222Z,43.87
2022-12-15T10:15:14.044Z,41.97
2022-12-15T10:17:46.424Z,46.10
2022-12-15T10:20:21.267Z,43.10
2022-12-15T10:22:50.442Z,44.70
2022-12-15T10:25:27.484Z,47.77
2022-12-15T10:28:18.100Z,50.67
2022-12-15T10:30:52.666Z,47.40
2022-12-15T10:33:24.076Z,48.37
2022-12-15T10:35:54.753Z,51.80
2022-12-15T10:38:26.304Z,53.73
2022-12-15T10:40:56.875Z,46.17
2022-12-15T10:43:31.743Z,45.83
2022-12-15T10:46:13.399Z,46.37
2022-12-15T10:48:41.561Z,48.50
2022-12-15T10:51:20.052Z,47.13
2022-12-15T10:56:50.206Z,46.47
2022-12-15T10:59:26.170Z,48.97
2022-12-15T11:01:53.949Z,59.60
2022-12-15T11:04:28.700Z,50.00
2022-12-15T11:07:02.410Z,47.70
2022-12-15T11:09:34.709Z,45.60
2022-12-15T11:12:20.134Z,46.27
2022-12-15T11:14:49.357Z,48.60
2022-12-15T11:17:20.506Z,50.13
2022-12-15T11:20:01.965Z,42.97
2022-12-15T11:22:42.571Z,41.00
2022-12-15T11:25:21.918Z,44.87
2022-12-15T11:27:51.453Z,45.47
2022-12-15T11:30:22.163Z,44.33
2022-12-15T11:32:53.516Z,43.90
2022-12-15T11:35:28.545Z,44.20
2022-12-15T11:38:06.576Z,44.70
2022-12-15T11:40:40.724Z,45.83
2022-12-15T11:43:44.092Z,43.93
2022-12-15T11:46:23.752Z,43.73
2022-12-15T11:49:20.392Z,44.87
2022-12-15T11:51:57.754Z,43.90
2022-12-15T11:54:31.074Z,45.03
2022-12-15T11:57:08.452Z,44.00
2022-12-15T12:00:02.943Z,43.20
2022-12-15T12:02:43.665Z,43.33
2022-12-15T12:05:27.833Z,42.23
2022-12-15T12:08:07.484Z,44.03
2022-12-15T12:10:43.893Z,43.70
2022-12-15T12:13:23.576Z,43.17
2022-12-15T12:15:58.567Z,43.03
2022-12-15T12:18:32.483Z,43.47
2022-12-15T12:21:06.206Z,44.30
2022-12-15T12:23:39.600Z,45.00
2022-12-15T12:26:14.382Z,44.33
2022-12-15T12:28:48.574Z,45.23
2022-12-15T12:31:27.329Z,45.17
2022-12-15T12:33:59.717Z,43.67
2022-12-15T12:36:27.276Z,45.37
2022-12-15T12:38:56.686Z,44.83
2022-12-15T12:41:36.438Z,43.27
2022-12-15T12:44:12.216Z,45.47
2022-12-15T12:46:46.787Z,44.43
2022-12-15T12:49:26.799Z,43.57
2022-12-15T12:51:58.522Z,43.23
2022-12-15T12:54:45.237Z,45.13
2022-12-15T12:57:33.875Z,43.70
2022-12-15T13:00:03.608Z,42.80
2022-12-15T13:02:46.345Z,45.07
2022-12-15T13:05:31.266Z,44.43
2022-12-15T13:08:40.640Z,45.23
2022-12-15T13:12:00.804Z,44.97
2022-12-15T13:14:42.203Z,43.23
2022-12-15T13:17:26.424Z,47.73
2022-12-15T13:20:29.277Z,45.40
2022-12-15T13:23:13.063Z,46.03
2022-12-15T13:25:42.886Z,45.40
2022-12-15T13:28:31.029Z,42.63
2022-12-15T13:31:33.199Z,47.67
2022-12-15T13:34:28.574Z,48.50
2022-12-15T13:37:01.196Z,48.17
2022-12-15T13:39:58.813Z,49.73
2022-12-15T13:45:36.290Z,47.43
2022-12-15T13:48:16.650Z,44.53
2022-12-15T13:53:42.877Z,46.33
2022-12-15T13:56:26.033Z,44.70
2022-12-15T13:59:02.357Z,49.73
2022-12-15T14:01:33.026Z,51.27
2022-12-15T14:04:07.750Z,46.93
2022-12-15T14:06:38.905Z,52.23
2022-12-15T14:09:07.795Z,51.20
2022-12-15T14:11:52.678Z,48.97
2022-12-15T14:14:24.338Z,46.10
2022-12-15T14:16:59.410Z,49.50
2022-12-15T14:19:38.795Z,46.70
2022-12-15T14:22:27.190Z,47.13
2022-12-15T14:25:01.508Z,50.23
2022-12-15T14:27:31.889Z,47.80
2022-12-15T14:30:29.226Z,49.43
2022-12-15T14:33:01.448Z,49.43
2022-12-15T14:35:36.054Z,50.83
2022-12-15T14:38:07.849Z,49.73
2022-12-15T14:40:37.502Z,48.93
2022-12-15T14:43:05.943Z,49.73
2022-12-15T14:45:33.802Z,51.17
2022-12-15T14:50:52.640Z,45.13
2022-12-15T14:53:22.725Z,48.30
2022-12-15T14:55:51.470Z,48.30
2022-12-15T14:58:32.209Z,49.80
2022-12-15T15:01:00.890Z,50.80
2022-12-15T15:03:07.531Z,47.57
2022-12-15T15:03:09.925Z,45.93
2022-12-15T15:03:13.257Z,48.57
2022-12-15T15:03:37.081Z,48.30
2022-12-15T15:06:15.548Z,48.87
2022-12-15T15:08:46.648Z,47.17
2022-12-15T15:11:26.784Z,48.80
2022-12-15T15:13:56.826Z,52.30
2022-12-15T15:16:24.691Z,45.53
2022-12-15T15:18:55.952Z,46.23
2022-12-15T15:21:27.869Z,47.07
2022-12-15T15:24:00.368Z,46.57
2022-12-15T15:26:28.224Z,51.90
2022-12-15T15:28:56.228Z,77.80
2022-12-15T15:31:33.878Z,57.97
2022-12-15T15:34:05.183Z,52.47
2022-12-15T15:36:36.728Z,52.73
2022-12-15T15:39:11.237Z,48.37
2022-12-15T15:41:39.124Z,49.43
2022-12-15T15:44:13.501Z,51.60
2022-12-15T15:46:47.352Z,51.40
2022-12-15T15:49:17.892Z,55.43
2022-12-15T15:51:46.892Z,57.43
2022-12-15T15:54:17.635Z,59.30
2022-12-15T15:56:45.228Z,56.30
2022-12-15T15:59:14.563Z,59.27
2022-12-15T16:01:42.257Z,53.33
2022-12-15T16:04:10.059Z,52.57
2022-12-15T16:06:42.090Z,50.93
2022-12-15T16:09:16.696Z,50.20
2022-12-15T16:11:45.892Z,49.60
2022-12-15T16:14:14.561Z,50.37
2022-12-15T16:16:42.658Z,51.07
2022-12-15T16:19:11.911Z,53.33
2022-12-15T16:21:41.547Z,55.60
2022-12-15T16:24:14.364Z,53.80
2022-12-15T16:26:47.941Z,94.87
2022-12-15T16:29:16.558Z,62.00
2022-12-15T16:31:45.420Z,70.13
2022-12-15T16:34:13.385Z,59.87
2022-12-15T16:36:41.887Z,58.13
2022-12-15T16:39:24.556Z,58.87
2022-12-15T16:41:55.215Z,53.10
2022-12-15T16:44:23.095Z,49.47
2022-12-15T16:46:51.305Z,52.13
2022-12-15T16:49:18.981Z,52.00
2022-12-15T16:51:48.963Z,54.23
2022-12-15T16:54:20.769Z,55.83
2022-12-15T16:56:48.454Z,55.30
2022-12-15T16:59:35.036Z,53.30
2022-12-15T17:02:18.399Z,59.77
2022-12-15T17:04:46.084Z,54.00
2022-12-15T17:07:19.938Z,52.10
2022-12-15T17:09:48.450Z,51.00
2022-12-15T17:12:17.853Z,50.47
2022-12-15T17:14:47.068Z,53.90
2022-12-15T17:17:15.732Z,53.33
2022-12-15T17:19:57.935Z,55.73
2022-12-15T17:22:32.662Z,52.63
2022-12-15T17:25:00.302Z,53.30
2022-12-15T17:27:30.092Z,53.67
2022-12-15T17:30:00.484Z,53.77
2022-12-15T17:32:28.117Z,50.97
2022-12-15T17:34:55.812Z,53.73
2022-12-15T17:37:26.194Z,56.10
2022-12-15T17:39:56.825Z,53.87
2022-12-15T17:42:24.400Z,56.63
2022-12-15T17:44:52.060Z,55.17
2022-12-15T17:47:21.025Z,56.57
2022-12-15T17:49:48.609Z,57.23
2022-12-15T17:52:25.348Z,56.03
2022-12-15T17:54:53.725Z,53.93
2022-12-15T17:57:21.549Z,53.53
2022-12-15T17:59:49.320Z,53.80
2022-12-15T18:02:17.152Z,55.77
2022-12-15T18:04:46.675Z,56.80
2022-12-15T18:07:17.687Z,59.17
2022-12-15T18:09:45.268Z,54.90
2022-12-15T18:12:19.640Z,55.47
2022-12-15T18:14:47.722Z,55.60
2022-12-15T18:17:15.393Z,60.47
2022-12-15T18:19:42.932Z,59.00
2022-12-15T18:22:15.348Z,62.07
2022-12-15T18:24:43.181Z,58.80
2022-12-15T18:27:20.135Z,60.57
2022-12-15T18:29:47.700Z,55.90
2022-12-15T18:32:17.029Z,54.67
2022-12-15T18:34:45.013Z,54.53
2022-12-15T18:37:16.517Z,57.63
2022-12-15T18:39:44.251Z,58.77
2022-12-15T18:42:15.392Z,64.20
2022-12-15T18:44:46.161Z,63.50
2022-12-15T18:47:17.702Z,67.10
2022-12-15T18:49:45.505Z,58.83
2022-12-15T18:52:18.471Z,64.57
2022-12-15T18:54:47.360Z,60.37
2022-12-15T18:57:28.181Z,62.13
2022-12-15T18:59:58.729Z,57.00
2022-12-15T19:02:26.451Z,57.63
2022-12-15T19:04:54.084Z,51.10
2022-12-15T19:07:23.027Z,54.70
2022-12-15T19:09:50.860Z,55.37
2022-12-15T19:12:18.639Z,55.03
2022-12-15T19:14:47.333Z,60.00
2022-12-15T19:17:34.489Z,59.97
2022-12-15T19:20:20.153Z,65.20
2022-12-15T19:22:49.889Z,69.80
2022-12-15T19:25:25.372Z,60.30
2022-12-15T19:27:58.294Z,62.37
2022-12-15T19:30:28.320Z,73.80
2022-12-15T19:32:56.392Z,65.67
2022-12-15T19:35:24.714Z,75.87
2022-12-15T19:37:55.444Z,63.57
2022-12-15T19:40:27.353Z,71.93
2022-12-15T19:42:55.677Z,72.43
2022-12-15T19:45:26.081Z,66.33
2022-12-15T19:47:54.032Z,70.30
2022-12-15T19:50:23.412Z,67.33
2022-12-15T19:52:57.494Z,64.23
2022-12-15T19:55:29.327Z,65.83
2022-12-15T19:57:57.199Z,72.73
2022-12-15T20:00:25.150Z,63.30
2022-12-15T20:02:54.943Z,65.93
2022-12-15T20:05:23.578Z,71.33
2022-12-15T20:07:52.950Z,69.10
2022-12-15T20:10:29.537Z,77.07
2022-12-15T20:12:59.745Z,93.67
2022-12-15T20:15:27.379Z,83.13
2022-12-15T20:17:56.645Z,75.20
2022-12-15T20:20:26.776Z,68.97
2022-12-15T20:22:57.413Z,70.27
2022-12-15T20:25:29.587Z,69.33
2022-12-15T20:27:57.632Z,71.37
2022-12-15T20:30:27.082Z,69.03
2022-12-15T20:32:54.974Z,66.07
2022-12-15T20:35:23.695Z,65.50
2022-12-15T20:37:52.493Z,65.93
2022-12-15T20:40:23.004Z,76.93
2022-12-15T20:42:53.558Z,67.63
2022-12-15T20:45:23.754Z,75.13
2022-12-15T20:47:53.406Z,66.53
2022-12-15T20:50:27.860Z,63.93
2022-12-15T20:52:55.569Z,62.57
2022-12-15T20:55:23.379Z,54.87
2022-12-15T20:57:52.288Z,60.93
2022-12-15T21:00:20.011Z,55.70
2022-12-15T21:02:47.939Z,53.13
2022-12-15T21:05:19.996Z,51.43
2022-12-15T21:07:48.644Z,50.67
2022-12-15T21:10:18.354Z,52.90
2022-12-15T21:12:50.212Z,53.73
2022-12-15T21:15:21.710Z,53.27
2022-12-15T21:17:57.251Z,50.37
2022-12-15T21:20:39.597Z,51.80
2022-12-15T21:23:07.353Z,50.33
2022-12-15T21:25:35.377Z,49.93
2022-12-15T21:28:02.936Z,49.20
2022-12-15T21:30:31.910Z,49.77
2022-12-15T21:32:59.520Z,50.10
2022-12-15T21:35:30.285Z,48.27
2022-12-15T21:37:59.733Z,50.43
2022-12-15T21:40:29.400Z,50.63
2022-12-15T21:42:57.913Z,49.17
2022-12-15T21:45:27.117Z,49.10
2022-12-15T21:48:13.612Z,49.73
2022-12-15T21:50:44.530Z,50.27
2022-12-15T21:53:16.737Z,48.70
2022-12-15T21:55:46.785Z,48.87
2022-12-15T21:58:19.569Z,49.40
2022-12-15T22:00:47.709Z,50.93
2022-12-15T22:03:16.698Z,47.63
2022-12-15T22:05:44.244Z,48.43
2022-12-15T22:08:15.720Z,49.60
2022-12-15T22:10:45.195Z,49.27
2022-12-15T22:13:17.592Z,49.17
2022-12-15T22:15:45.992Z,48.43
2022-12-15T22:18:19.457Z,47.00
2022-12-15T22:20:50.297Z,50.03
2022-12-15T22:23:18.882Z,48.70
2022-12-15T22:25:47.044Z,50.67
2022-12-15T22:28:21.625Z,49.07
2022-12-15T22:30:50.294Z,51.63
2022-12-15T22:33:21.815Z,53.83
2022-12-15T22:35:52.608Z,53.27
2022-12-15T22:38:24.152Z,51.07
2022-12-15T22:40:55.532Z,50.07
2022-12-15T22:43:26.789Z,42.03
2022-12-15T22:45:56.451Z,45.13
2022-12-15T22:48:34.094Z,46.47
2022-12-15T22:51:04.580Z,43.13
2022-12-15T22:53:34.352Z,43.87
2022-12-15T22:56:05.946Z,44.43
2022-12-15T22:58:37.111Z,42.67
2022-12-15T23:01:06.849Z,39.00
2022-12-15T23:03:35.496Z,38.53
2022-12-15T23:06:05.592Z,36.23
2022-12-15T23:08:33.687Z,38.33
2022-12-15T23:11:18.623Z,34.90
2022-12-15T23:13:46.343Z,33.37
2022-12-15T23:16:22.187Z,33.63
2022-12-15T23:18:51.665Z,33.20
2022-12-15T23:21:21.831Z,34.33
2022-12-15T23:23:49.884Z,36.20
2022-12-15T23:26:19.857Z,37.13
2022-12-15T23:28:47.419Z,36.47
2022-12-15T23:31:15.048Z,36.47
2022-12-15T23:33:43.101Z,36.53
2022-12-15T23:36:12.106Z,37.13
2022-12-15T23:38:41.045Z,38.30
2022-12-15T23:41:08.605Z,37.00
2022-12-15T23:43:36.281Z,37.67
2022-12-15T23:46:06.225Z,34.20
2022-12-15T23:48:35.753Z,35.07
2022-12-15T23:51:05.318Z,34.97
2022-12-15T23:53:33.314Z,34.73
2022-12-15T23:56:08.192Z,34.37
2022-12-15T23:58:35.777Z,35.90
